Time;durP1;ratioP1;P1;durP2;ratioP2;P2;SDS_P1;SDS_P2;PMS_P1;PMS_P2;Temp;Humidity;BMP_temperature;BMP_pressure;BME280_temperature;BME280_humidity;BME280_pressure;Samples;Min_cycle;Max_cycle;Signal;HPM_P1;HPM_P2
2022/02/01 00:03:01;;;;;;;15.93;1.88;;;2.20;99.90;;;;;;5051095;28;20025;-76
2022/02/01 00:10:49;;;;;;;20.02;1.40;;;2.20;99.90;;;;;;5049170;28;20029;-76
2022/02/01 00:13:29;;;;;;;9.98;0.70;;;2.30;99.90;;;;;;5052743;28;20025;-76
2022/02/01 00:36:57;;;;;;;15.52;1.70;;;2.30;99.90;;;;;;5049633;28;20481;-78
2022/02/01 00:39:30;;;;;;;16.57;1.47;;;2.30;99.90;;;;;;5051918;28;20032;-78
2022/02/01 00:41:55;;;;;;;;;;;2.30;99.90;;;;;;5050994;28;20032;-78
2022/02/01 00:44:21;;;;;;;10.20;1.02;;;2.30;99.90;;;;;;5044278;28;19909;-78
2022/02/01 00:46:47;;;;;;;13.10;0.70;;;2.30;99.90;;;;;;5039711;28;20040;-76
2022/02/01 00:49:14;;;;;;;13.18;1.17;;;2.30;99.90;;;;;;5051524;28;20032;-75
2022/02/01 00:51:39;;;;;;;12.68;0.88;;;2.30;99.90;;;;;;5049476;28;20029;-75
2022/02/01 00:54:05;;;;;;;14.75;0.85;;;2.40;99.90;;;;;;5049824;28;20031;-75
2022/02/01 00:56:31;;;;;;;15.98;1.10;;;2.40;99.90;;;;;;5051326;28;20554;-76
2022/02/01 00:58:57;;;;;;;14.73;1.55;;;2.40;99.90;;;;;;5049347;28;20170;-76
2022/02/01 01:01:22;;;;;;;22.13;1.70;;;2.50;99.90;;;;;;5051702;28;20556;-76
2022/02/01 01:03:48;;;;;;;16.10;1.20;;;2.50;99.90;;;;;;5049418;28;20420;-75
2022/02/01 01:06:14;;;;;;;20.20;1.35;;;2.60;99.90;;;;;;5049062;28;20064;-76
2022/02/01 01:08:41;;;;;;;16.58;1.23;;;2.60;99.90;;;;;;5049614;28;20087;-75
2022/02/01 01:11:08;;;;;;;17.60;1.30;;;2.70;99.90;;;;;;5047175;28;20053;-75
2022/02/01 01:16:11;;;;;;;16.50;1.20;;;2.80;99.90;;;;;;5047284;28;20377;-76
2022/02/01 01:46:04;;;;;;;15.32;1.25;;;3.10;99.90;;;;;;5051496;28;20035;-78
2022/02/01 01:54:02;;;;;;;14.90;1.77;;;3.20;99.90;;;;;;5050301;28;20082;-76
2022/02/01 01:56:35;;;;;;;15.63;0.95;;;3.20;99.90;;;;;;5047382;28;20025;-75
2022/02/01 01:59:02;;;;;;;17.60;0.90;;;3.30;99.90;;;;;;5044734;28;20119;-76
2022/02/01 02:01:29;;;;;;;12.55;0.70;;;3.30;99.90;;;;;;5049627;28;20037;-75
2022/02/01 02:03:54;;;;;;;11.30;0.95;;;3.40;99.90;;;;;;5048830;28;20025;-76
2022/02/01 02:06:20;;;;;;;9.18;0.50;;;3.40;99.90;;;;;;5049889;28;20155;-76
2022/02/01 02:08:49;;;;;;;12.73;0.70;;;3.40;99.90;;;;;;5045022;28;20106;-76
2022/02/01 02:11:31;;;;;;;11.95;0.75;;;3.40;99.90;;;;;;5049657;28;20107;-76
2022/02/01 02:16:53;;;;;;;16.05;0.70;;;3.50;99.90;;;;;;5045710;28;20059;-76
2022/02/01 02:19:20;;;;;;;10.88;0.88;;;3.50;99.90;;;;;;5046061;28;20037;-76
2022/02/01 02:21:54;;;;;;;15.35;1.80;;;3.40;99.90;;;;;;5042199;28;20026;-77
2022/02/01 02:24:21;;;;;;;22.35;1.10;;;3.40;99.90;;;;;;5031509;28;20037;-76
2022/02/01 02:26:49;;;;;;;12.88;1.55;;;3.40;99.90;;;;;;5035985;28;20511;-76
2022/02/01 02:29:15;;;;;;;18.27;2.60;;;3.30;99.90;;;;;;5048134;28;20068;-76
2022/02/01 02:31:41;;;;;;;15.52;0.80;;;3.30;99.90;;;;;;5036492;28;20025;-76
2022/02/01 02:34:11;;;;;;;17.20;0.73;;;3.30;99.90;;;;;;5046509;28;20496;-76
2022/02/01 02:36:43;;;;;;;9.10;0.60;;;3.30;99.90;;;;;;5037957;28;20029;-76
2022/02/01 02:39:22;;;;;;;19.92;2.03;;;3.30;99.90;;;;;;5050434;28;20068;-76
2022/02/01 02:47:19;;;;;;;16.35;0.73;;;3.30;99.90;;;;;;5052989;28;20074;-76
2022/02/01 02:49:44;;;;;;;13.07;0.98;;;3.20;99.90;;;;;;5053499;28;20029;-76
2022/02/01 02:52:10;;;;;;;18.00;0.88;;;3.20;99.90;;;;;;5049958;28;20077;-76
2022/02/01 02:54:36;;;;;;;9.90;0.90;;;3.20;99.90;;;;;;5052577;28;20462;-76
2022/02/01 02:57:05;;;;;;;11.10;0.70;;;3.20;99.90;;;;;;5054164;28;20037;-76
2022/02/01 02:59:31;;;;;;;16.45;1.17;;;3.20;99.90;;;;;;5052225;28;20037;-76
2022/02/01 03:01:58;;;;;;;6.40;0.70;;;3.20;99.90;;;;;;5052721;28;20637;-76
2022/02/01 03:04:26;;;;;;;16.20;1.10;;;3.20;99.90;;;;;;5052378;28;20036;-76
2022/02/01 03:06:53;;;;;;;9.55;1.08;;;3.20;99.90;;;;;;5067164;28;20029;-76
2022/02/01 03:09:21;;;;;;;15.40;1.05;;;3.20;99.90;;;;;;5052345;28;20036;-76
2022/02/01 03:11:48;;;;;;;20.00;1.30;;;3.30;99.90;;;;;;5051326;28;20037;-76
2022/02/01 03:14:43;;;;;;;9.73;0.60;;;3.30;99.90;;;;;;5052891;28;20101;-77
2022/02/01 03:19:55;;;;;;;13.20;0.77;;;3.30;99.90;;;;;;5047047;28;20040;-77
2022/02/01 03:22:24;;;;;;;20.38;0.93;;;3.30;99.90;;;;;;5050644;28;20115;-76
2022/02/01 03:24:51;;;;;;;16.60;0.70;;;3.30;99.90;;;;;;5047024;28;20025;-76
2022/02/01 03:27:16;;;;;;;8.40;0.77;;;3.40;99.90;;;;;;5052853;28;20040;-77
2022/02/01 03:29:43;;;;;;;7.05;0.47;;;3.30;99.90;;;;;;5051969;28;20025;-76
2022/02/01 03:32:09;;;;;;;11.25;0.63;;;3.40;99.90;;;;;;5052190;28;20037;-76
2022/02/01 03:34:35;;;;;;;16.50;1.65;;;3.40;99.90;;;;;;5051288;28;20032;-76
2022/02/01 03:37:00;;;;;;;14.20;1.40;;;3.40;99.90;;;;;;5050889;28;20037;-76
2022/02/01 03:39:26;;;;;;;6.57;0.57;;;3.40;99.90;;;;;;5053125;28;20048;-76
2022/02/01 03:41:52;;;;;;;11.93;0.88;;;3.40;99.90;;;;;;5051855;28;20029;-76
2022/02/01 03:44:19;;;;;;;12.23;0.77;;;3.30;99.90;;;;;;5052775;28;20376;-76
2022/02/01 03:46:55;;;;;;;17.73;0.98;;;3.30;99.90;;;;;;5050973;28;20013;-76
2022/02/01 03:49:20;;;;;;;12.05;0.60;;;3.40;99.90;;;;;;5050366;28;20033;-76
2022/02/01 03:51:46;;;;;;;3.88;0.47;;;3.40;99.90;;;;;;5049556;28;20094;-76
2022/02/01 03:54:11;;;;;;;9.60;1.02;;;3.40;99.90;;;;;;5050769;28;20103;-75
2022/02/01 03:56:37;;;;;;;10.20;0.60;;;3.40;99.90;;;;;;5051185;28;20033;-77
2022/02/01 03:59:02;;;;;;;10.18;0.90;;;3.40;99.90;;;;;;5054250;28;20075;-76
2022/02/01 04:01:29;;;;;;;6.75;0.55;;;3.50;99.90;;;;;;5051529;28;20399;-75
2022/02/01 04:03:55;;;;;;;12.35;0.98;;;3.50;99.90;;;;;;5051859;28;20029;-76
2022/02/01 04:06:21;;;;;;;10.48;0.60;;;3.40;99.90;;;;;;5050703;28;20024;-76
2022/02/01 04:08:46;;;;;;;12.40;0.68;;;3.50;99.90;;;;;;5047374;28;20033;-76
2022/02/01 04:11:12;;;;;;;8.98;0.60;;;3.50;99.90;;;;;;5053569;28;20039;-77
2022/02/01 04:13:38;;;;;;;9.23;0.60;;;3.50;99.90;;;;;;5034008;28;20064;-76
2022/02/01 04:16:04;;;;;;;7.85;0.50;;;3.50;99.90;;;;;;5047221;28;20389;-76
2022/02/01 04:18:29;;;;;;;10.02;0.57;;;3.50;99.90;;;;;;5052711;28;20036;-76
2022/02/01 04:20:55;;;;;;;12.57;0.70;;;3.50;99.90;;;;;;5049937;28;20036;-76
2022/02/01 04:23:20;;;;;;;13.80;1.50;;;3.50;99.90;;;;;;5046619;28;20021;-76
2022/02/01 04:25:46;;;;;;;8.60;0.68;;;3.60;99.90;;;;;;5049314;28;20021;-77
2022/02/01 04:28:12;;;;;;;10.25;0.98;;;3.60;99.90;;;;;;5051598;28;20119;-76
2022/02/01 04:30:37;;;;;;;8.90;0.80;;;3.60;99.90;;;;;;5051871;28;20097;-76
2022/02/01 04:33:07;;;;;;;14.27;1.40;;;3.60;99.90;;;;;;5051318;28;20044;-76
2022/02/01 04:35:34;;;;;;;9.27;0.70;;;3.60;99.90;;;;;;5049063;28;20028;-76
2022/02/01 04:38:00;;;;;;;8.88;1.23;;;3.60;99.90;;;;;;5043446;28;20400;-76
2022/02/01 04:40:27;;;;;;;9.82;0.70;;;3.60;99.90;;;;;;5050458;28;20021;-76
2022/02/01 04:42:52;;;;;;;14.50;0.77;;;3.60;99.90;;;;;;5046026;28;20032;-77
2022/02/01 04:45:21;;;;;;;12.38;0.57;;;3.60;99.90;;;;;;5052246;28;20408;-76
2022/02/01 04:47:49;;;;;;;10.10;0.70;;;3.70;99.90;;;;;;5050098;28;20021;-75
2022/02/01 04:50:21;;;;;;;10.07;0.65;;;3.60;99.90;;;;;;5050437;28;20035;-75
2022/02/01 04:52:49;;;;;;;9.05;0.57;;;3.60;99.90;;;;;;5050398;28;20094;-76
2022/02/01 04:55:15;;;;;;;12.27;1.25;;;3.60;99.90;;;;;;5051883;28;20404;-76
2022/02/01 04:57:54;;;;;;;9.40;0.70;;;3.70;99.90;;;;;;5049778;28;20025;-76
2022/02/01 05:00:22;;;;;;;8.50;0.80;;;3.70;99.90;;;;;;5042730;28;20454;-76
2022/02/01 05:02:47;;;;;;;13.73;0.80;;;3.70;99.90;;;;;;5049727;28;20052;-76
2022/02/01 05:05:13;;;;;;;11.50;1.38;;;3.70;99.90;;;;;;5049533;28;20456;-76
2022/02/01 05:07:38;;;;;;;17.05;0.75;;;3.70;99.90;;;;;;5050528;28;20108;-76
2022/02/01 05:10:04;;;;;;;14.07;0.70;;;3.80;99.90;;;;;;5052163;28;20036;-76
2022/02/01 05:12:36;;;;;;;8.77;0.77;;;3.70;99.90;;;;;;5046496;28;20051;-77
2022/02/01 05:15:06;;;;;;;10.80;1.33;;;3.70;99.90;;;;;;5051840;28;20099;-76
2022/02/01 05:17:41;;;;;;;10.02;0.93;;;3.80;99.90;;;;;;5049698;28;20112;-76
2022/02/01 05:20:41;;;;;;;11.80;1.00;;;3.70;99.90;;;;;;5057695;28;20025;-76
2022/02/01 05:23:06;;;;;;;10.07;1.02;;;3.80;99.90;;;;;;5046024;28;20159;-76
2022/02/01 05:25:32;;;;;;;7.05;0.60;;;3.70;99.90;;;;;;5050339;28;20451;-77
2022/02/01 05:27:59;;;;;;;10.50;0.82;;;3.70;99.90;;;;;;5050823;28;20025;-77
2022/02/01 05:30:26;;;;;;;10.20;0.90;;;3.60;99.90;;;;;;5051096;28;20122;-76
2022/02/01 05:32:52;;;;;;;11.25;1.25;;;3.60;99.90;;;;;;5048912;28;20029;-76
2022/02/01 05:35:17;;;;;;;15.70;2.55;;;3.60;99.90;;;;;;5051311;28;20484;-76
2022/02/01 05:37:43;;;;;;;14.18;0.70;;;3.60;99.90;;;;;;5047295;28;20025;-77
2022/02/01 05:40:10;;;;;;;11.55;0.80;;;3.60;99.90;;;;;;5049442;28;20021;-76
2022/02/01 05:42:44;;;;;;;18.33;1.08;;;3.60;99.90;;;;;;5051273;28;20020;-78
2022/02/01 05:45:10;;;;;;;14.57;1.10;;;3.60;99.90;;;;;;5049782;28;20065;-78
2022/02/01 05:47:35;;;;;;;13.75;1.13;;;3.60;99.90;;;;;;5043415;28;20049;-78
2022/02/01 05:50:01;;;;;;;8.23;0.82;;;3.60;99.90;;;;;;5049411;28;20086;-78
2022/02/01 05:52:26;;;;;;;11.23;2.20;;;3.70;99.90;;;;;;5047382;28;20044;-78
2022/02/01 05:54:52;;;;;;;14.48;1.65;;;3.70;99.90;;;;;;5052381;22;20028;-76
2022/02/01 05:57:18;;;;;;;12.52;1.85;;;3.70;99.90;;;;;;5003984;28;20061;-76
2022/02/01 05:59:43;;;;;;;19.27;1.67;;;3.70;99.90;;;;;;5017711;28;20476;-77
2022/02/01 06:02:09;;;;;;;12.15;2.15;;;3.70;99.90;;;;;;5011832;28;20032;-76
2022/02/01 06:04:34;;;;;;;8.60;1.08;;;3.70;99.90;;;;;;5012103;28;20030;-76
2022/02/01 06:07:00;;;;;;;15.45;1.10;;;3.70;99.90;;;;;;5005036;28;20030;-77
2022/02/01 06:09:25;;;;;;;14.85;1.25;;;3.70;99.90;;;;;;5009821;28;20484;-77
2022/02/01 06:11:51;;;;;;;12.02;1.40;;;3.80;99.90;;;;;;5011510;28;20061;-76
2022/02/01 06:14:16;;;;;;;11.05;1.38;;;3.80;99.90;;;;;;5011849;28;20026;-77
2022/02/01 06:16:42;;;;;;;14.07;1.58;;;3.80;99.90;;;;;;5010277;28;20057;-76
2022/02/01 06:19:08;;;;;;;12.73;1.83;;;3.80;99.90;;;;;;5010325;28;20041;-77
2022/02/01 06:21:36;;;;;;;16.08;2.60;;;3.90;99.90;;;;;;5010543;28;20048;-76
2022/02/01 06:24:02;;;;;;;13.00;2.45;;;3.90;99.90;;;;;;5004413;28;20425;-76
2022/02/01 06:26:27;;;;;;;17.30;2.03;;;3.90;99.90;;;;;;5002251;28;20114;-76
2022/02/01 06:28:53;;;;;;;13.52;2.50;;;4.00;99.90;;;;;;5004682;28;20038;-77
2022/02/01 06:31:19;;;;;;;15.95;2.55;;;4.00;99.90;;;;;;5004652;28;20030;-77
2022/02/01 06:33:44;;;;;;;10.65;2.53;;;4.00;99.90;;;;;;5000138;28;20053;-77
2022/02/01 06:36:10;;;;;;;19.27;2.78;;;4.00;99.90;;;;;;5008564;28;20034;-76
2022/02/01 06:38:35;;;;;;;19.33;2.83;;;4.10;99.90;;;;;;5005830;28;20036;-77
2022/02/01 06:41:01;;;;;;;20.52;3.55;;;4.10;99.90;;;;;;5009651;28;20029;-78
2022/02/01 06:43:27;;;;;;;18.90;3.97;;;4.10;99.90;;;;;;5009040;28;20104;-77
2022/02/01 06:45:53;;;;;;;14.88;5.30;;;4.10;99.90;;;;;;5000929;28;20441;-78
2022/02/01 06:48:18;;;;;;;16.77;4.80;;;4.10;99.90;;;;;;5007827;28;20033;-77
2022/02/01 06:50:44;;;;;;;20.23;4.57;;;4.20;99.90;;;;;;4984466;28;20751;-75
2022/02/01 06:53:10;;;;;;;21.85;5.03;;;4.20;99.90;;;;;;5006069;28;20520;-76
2022/02/01 06:58:04;;;;;;;28.80;5.93;;;4.20;99.90;;;;;;5009529;28;20133;-74
2022/02/01 07:00:31;;;;;;;18.70;6.63;;;4.20;99.90;;;;;;5010350;28;20108;-77
2022/02/01 07:02:56;;;;;;;19.27;5.90;;;4.20;99.90;;;;;;5023878;28;20032;-75
2022/02/01 07:05:22;;;;;;;28.70;7.20;;;4.20;99.90;;;;;;5010381;28;20401;-75
2022/02/01 07:07:50;;;;;;;27.17;6.30;;;4.20;99.90;;;;;;5023416;28;20071;-77
2022/02/01 07:10:16;;;;;;;22.00;8.52;;;4.20;99.90;;;;;;5011545;28;20017;-77
2022/02/01 07:12:42;;;;;;;26.52;7.72;;;4.20;99.90;;;;;;5004855;28;20028;-78
2022/02/01 07:15:08;;;;;;;24.33;8.75;;;4.20;99.90;;;;;;5026894;28;20473;-77
2022/02/01 07:17:45;;;;;;;29.02;11.00;;;4.20;99.90;;;;;;5029412;28;20034;-77
2022/02/01 07:20:12;;;;;;;34.03;10.05;;;4.20;99.90;;;;;;5002210;28;20042;-77
2022/02/01 07:22:38;;;;;;;30.17;10.88;;;4.20;99.90;;;;;;5029432;28;20366;-77
2022/02/01 07:25:13;;;;;;;30.42;11.52;;;4.20;99.90;;;;;;5034628;28;20036;-77
2022/02/01 07:27:42;;;;;;;33.15;13.00;;;4.30;99.90;;;;;;5005831;28;20525;-76
2022/02/01 07:30:11;;;;;;;32.38;12.60;;;4.20;99.90;;;;;;5003929;28;20029;-77
2022/02/01 07:32:38;;;;;;;36.97;14.25;;;4.20;99.90;;;;;;5014538;28;20029;-76
2022/02/01 07:35:05;;;;;;;31.95;13.73;;;4.30;99.90;;;;;;5023306;28;20060;-76
2022/02/01 07:37:31;;;;;;;34.65;16.23;;;4.30;99.90;;;;;;5023486;28;20023;-77
2022/02/01 07:39:57;;;;;;;38.97;16.88;;;4.30;99.90;;;;;;5020519;28;20073;-76
2022/02/01 07:42:22;;;;;;;39.38;17.63;;;4.30;99.90;;;;;;5019518;28;20392;-76
2022/02/01 07:44:49;;;;;;;47.17;19.45;;;4.30;99.90;;;;;;5020909;28;20556;-76
2022/02/01 07:47:21;;;;;;;48.65;20.40;;;4.30;99.90;;;;;;5012126;28;20029;-76
2022/02/01 07:49:48;;;;;;;49.60;20.58;;;4.30;99.90;;;;;;5007120;28;20022;-76
2022/02/01 07:52:13;;;;;;;50.45;22.75;;;4.40;99.90;;;;;;5013862;28;20594;-77
2022/02/01 07:54:39;;;;;;;49.38;23.35;;;4.40;99.90;;;;;;5011438;28;20030;-77
2022/02/01 07:57:06;;;;;;;49.25;22.88;;;4.40;99.90;;;;;;5026319;28;20054;-78
2022/02/01 07:59:35;;;;;;;54.63;23.80;;;4.40;99.90;;;;;;5030569;28;20397;-77
2022/02/01 08:02:03;;;;;;;55.30;26.20;;;4.40;99.90;;;;;;5012141;28;20037;-78
2022/02/01 08:04:33;;;;;;;51.53;25.48;;;4.50;99.90;;;;;;5014366;28;20496;-77
2022/02/01 08:06:59;;;;;;;58.22;27.55;;;4.50;99.90;;;;;;5008258;28;20169;-77
2022/02/01 08:09:32;;;;;;;54.20;27.38;;;4.50;99.90;;;;;;5019317;28;20045;-78
2022/02/01 08:11:57;;;;;;;50.80;27.70;;;4.60;99.90;;;;;;5028674;28;20037;-78
2022/02/01 08:15:42;;;;;;;54.08;27.02;;;4.60;99.90;;;;;;5017152;28;20071;-77
2022/02/01 08:17:36;;;;;;;53.85;28.00;;;4.60;99.90;;;;;;5011548;28;20048;-78
2022/02/01 08:20:04;;;;;;;57.42;27.70;;;4.60;99.90;;;;;;5012819;28;20045;-77
2022/02/01 08:25:06;;;;;;;60.97;30.48;;;4.70;99.90;;;;;;5026332;28;20076;-78
2022/02/01 08:27:33;;;;;;;53.90;28.55;;;4.70;99.90;;;;;;5014489;28;20029;-78
2022/02/01 08:30:00;;;;;;;59.08;30.33;;;4.80;99.90;;;;;;5019260;28;20029;-77
2022/02/01 08:32:28;;;;;;;55.40;29.63;;;4.80;99.90;;;;;;5016864;28;20456;-78
2022/02/01 08:34:54;;;;;;;55.15;29.23;;;4.80;99.90;;;;;;5005462;28;20034;-77
2022/02/01 08:37:20;;;;;;;55.40;29.02;;;4.80;99.90;;;;;;5009571;28;20504;-78
2022/02/01 08:39:46;;;;;;;55.83;29.27;;;4.80;99.90;;;;;;5015457;28;20120;-78
2022/02/01 08:42:12;;;;;;;51.45;29.33;;;4.80;99.90;;;;;;5000289;28;20109;-78
2022/02/01 08:44:38;;;;;;;52.95;29.25;;;4.90;99.90;;;;;;5021341;28;20076;-78
2022/02/01 08:47:04;;;;;;;55.40;30.33;;;4.90;99.90;;;;;;5005629;28;20023;-77
2022/02/01 08:49:29;;;;;;;51.45;29.15;;;4.90;99.90;;;;;;5008794;28;20120;-78
2022/02/01 08:52:04;;;;;;;49.80;28.73;;;4.90;99.90;;;;;;4998331;28;20133;-77
2022/02/01 08:54:32;;;;;;;56.40;28.70;;;5.00;99.90;;;;;;5000262;28;20087;-78
2022/02/01 08:59:42;;;;;;;52.85;28.92;;;5.00;99.90;;;;;;4989468;28;20113;-79
2022/02/01 09:02:09;;;;;;;54.72;28.25;;;5.00;99.90;;;;;;4995255;28;20054;-79
2022/02/01 09:04:35;;;;;;;51.22;28.10;;;5.00;99.90;;;;;;5007557;28;20033;-80
2022/02/01 09:07:02;;;;;;;50.58;29.40;;;5.00;99.90;;;;;;5008189;28;20120;-79
2022/02/01 09:09:29;;;;;;;47.42;27.83;;;5.10;99.90;;;;;;4993383;28;20401;-80
2022/02/01 09:11:55;;;;;;;46.17;26.02;;;5.10;99.90;;;;;;5007645;28;20504;-80
2022/02/01 09:14:21;;;;;;;47.90;27.05;;;5.10;99.90;;;;;;5015165;28;20097;-80
2022/02/01 09:16:50;;;;;;;45.08;25.90;;;5.20;99.90;;;;;;4992863;28;20030;-79
2022/02/01 09:19:16;;;;;;;42.83;26.30;;;5.20;99.90;;;;;;4999890;28;20037;-80
2022/02/01 09:21:42;;;;;;;44.15;24.88;;;5.20;99.90;;;;;;5024595;28;20075;-81
2022/02/01 09:24:07;;;;;;;39.08;22.70;;;5.20;99.90;;;;;;5029086;28;20034;-80
2022/02/01 09:26:33;;;;;;;41.50;24.60;;;5.20;99.90;;;;;;4999559;28;20037;-80
2022/02/01 09:28:59;;;;;;;36.53;23.17;;;5.30;99.90;;;;;;4996330;28;20525;-80
2022/02/01 09:31:25;;;;;;;38.63;23.02;;;5.30;99.90;;;;;;5013987;28;20057;-80
2022/02/01 09:33:50;;;;;;;35.88;23.05;;;5.30;99.90;;;;;;5008848;28;20037;-81
2022/02/01 09:36:17;;;;;;;38.00;23.75;;;5.40;99.90;;;;;;5019143;28;20038;-81
2022/02/01 09:38:42;;;;;;;33.83;21.70;;;5.40;99.90;;;;;;4992218;28;20036;-82
2022/02/01 09:41:08;;;;;;;38.13;22.85;;;5.40;99.90;;;;;;5009138;28;20423;-81
2022/02/01 09:43:34;;;;;;;37.78;22.10;;;5.40;99.90;;;;;;4995025;28;20022;-80
2022/02/01 09:46:00;;;;;;;34.03;21.88;;;5.50;99.90;;;;;;5026034;28;20034;-81
2022/02/01 09:48:27;;;;;;;34.38;21.35;;;5.50;99.90;;;;;;5006684;28;20033;-81
2022/02/01 09:50:53;;;;;;;36.88;20.80;;;5.60;99.90;;;;;;5012934;28;20030;-81
2022/02/01 09:53:20;;;;;;;32.40;19.10;;;5.70;99.90;;;;;;5011661;28;20022;-82
2022/02/01 09:55:47;;;;;;;30.85;20.23;;;5.70;99.90;;;;;;5012725;28;20042;-81
2022/02/01 09:58:13;;;;;;;32.10;18.95;;;5.80;99.90;;;;;;5008060;28;20054;-82
2022/02/01 10:00:45;;;;;;;32.03;19.83;;;5.80;99.90;;;;;;4993429;28;20068;-82
2022/02/01 10:03:18;;;;;;;30.98;19.20;;;5.80;99.90;;;;;;4988273;28;20037;-82
2022/02/01 10:05:44;;;;;;;33.00;20.08;;;5.90;99.90;;;;;;5008688;28;20026;-81
2022/02/01 10:08:11;;;;;;;29.45;18.17;;;5.90;99.90;;;;;;5027060;28;20026;-80
2022/02/01 10:10:36;;;;;;;30.45;17.35;;;6.00;99.90;;;;;;5010909;28;20041;-81
2022/02/01 10:13:13;;;;;;;26.48;15.30;;;6.00;99.90;;;;;;5009724;28;20023;-81
2022/02/01 10:15:40;;;;;;;27.38;16.52;;;6.00;99.90;;;;;;5006067;28;20091;-82
2022/02/01 10:18:08;;;;;;;21.88;13.38;;;6.10;99.90;;;;;;5015579;28;20061;-80
2022/02/01 10:20:42;;;;;;;21.58;12.93;;;6.10;99.90;;;;;;5005910;28;20211;-82
2022/02/01 10:23:19;;;;;;;23.48;11.80;;;6.20;99.90;;;;;;4994893;28;20036;-80
2022/02/01 10:26:09;;;;;;;21.50;11.93;;;6.20;99.90;;;;;;5008791;28;20064;-78
2022/02/01 10:29:02;;;;;;;19.30;12.38;;;6.30;99.90;;;;;;5020157;28;20035;-78
2022/02/01 10:31:49;;;;;;;18.15;11.48;;;6.30;99.90;;;;;;5009765;28;20069;-78
2022/02/01 10:37:13;;;;;;;16.73;10.43;;;6.30;99.90;;;;;;5008208;28;20041;-78
2022/02/01 10:39:39;;;;;;;18.67;10.30;;;6.30;99.90;;;;;;5019963;28;20066;-78
2022/02/01 10:42:09;;;;;;;19.30;10.85;;;6.30;99.90;;;;;;5013302;28;20052;-78
2022/02/01 10:44:40;;;;;;;18.17;11.32;;;6.30;99.90;;;;;;5018744;28;20058;-78
2022/02/01 10:47:07;;;;;;;19.92;10.77;;;6.30;99.90;;;;;;5024065;28;20638;-77
2022/02/01 10:49:35;;;;;;;16.38;9.70;;;6.30;99.90;;;;;;5006100;28;20515;-78
2022/02/01 10:52:02;;;;;;;18.52;10.52;;;6.40;99.90;;;;;;5005330;28;20084;-77
2022/02/01 10:54:28;;;;;;;16.75;9.27;;;6.40;99.90;;;;;;5004759;28;20014;-79
2022/02/01 10:56:54;;;;;;;17.88;10.35;;;6.40;99.90;;;;;;4998747;28;20100;-79
2022/02/01 10:59:19;;;;;;;14.20;8.70;;;6.50;99.90;;;;;;4999381;28;20039;-79
2022/02/01 11:01:45;;;;;;;17.80;9.57;;;6.50;99.90;;;;;;5005143;28;20033;-79
2022/02/01 11:04:11;;;;;;;18.45;9.73;;;6.50;99.90;;;;;;5003605;28;20382;-78
2022/02/01 11:06:37;;;;;;;15.25;9.00;;;6.50;99.90;;;;;;4997942;28;20022;-78
2022/02/01 11:09:03;;;;;;;15.20;8.02;;;6.50;99.90;;;;;;5007344;28;20036;-77
2022/02/01 11:11:28;;;;;;;15.02;9.35;;;6.60;99.90;;;;;;4985957;28;20422;-77
2022/02/01 11:13:54;;;;;;;16.20;9.20;;;6.60;99.90;;;;;;5004622;28;20029;-79
2022/02/01 11:16:23;;;;;;;15.05;9.85;;;6.60;99.90;;;;;;5015216;28;20029;-79
2022/02/01 11:19:05;;;;;;;16.20;9.05;;;6.70;99.90;;;;;;4997461;28;20037;-80
2022/02/01 11:21:46;;;;;;;14.83;9.47;;;6.70;99.90;;;;;;5012681;28;20087;-79
2022/02/01 11:24:37;;;;;;;16.20;9.10;;;6.70;99.90;;;;;;4999094;28;20077;-79
2022/02/01 11:27:17;;;;;;;13.93;8.68;;;6.80;99.90;;;;;;4995938;28;20034;-80
2022/02/01 11:30:17;;;;;;;14.57;7.70;;;6.90;99.90;;;;;;4995693;28;20521;-79
2022/02/01 11:32:38;;;;;;;13.48;7.30;;;6.90;99.90;;;;;;5009212;28;20046;-79
2022/02/01 11:35:07;;;;;;;12.90;6.88;;;7.00;99.90;;;;;;5015209;28;20022;-80
2022/02/01 11:37:36;;;;;;;11.68;7.10;;;7.00;99.90;;;;;;5015125;28;20038;-80
2022/02/01 11:40:03;;;;;;;10.40;4.75;;;7.00;99.90;;;;;;5014532;28;20038;-79
2022/02/01 11:42:33;;;;;;;10.57;6.60;;;7.00;99.90;;;;;;5014181;28;20034;-80
2022/02/01 11:45:07;;;;;;;11.15;6.55;;;7.00;99.90;;;;;;5014891;28;20026;-80
2022/02/01 11:47:41;;;;;;;13.23;6.22;;;7.10;99.90;;;;;;5014600;28;20057;-78
2022/02/01 11:50:14;;;;;;;11.05;5.47;;;7.10;99.90;;;;;;5014930;28;20096;-79
2022/02/01 11:52:48;;;;;;;12.25;5.95;;;7.10;99.90;;;;;;5011962;28;20057;-79
2022/02/01 11:55:17;;;;;;;9.10;4.88;;;7.10;99.90;;;;;;5013976;28;20056;-78
2022/02/01 11:57:46;;;;;;;9.15;5.05;;;7.10;99.90;;;;;;5015508;28;20091;-78
2022/02/01 12:00:17;;;;;;;7.15;4.90;;;7.20;99.90;;;;;;5000955;28;20070;-78
2022/02/01 12:03:01;;;;;;;8.25;4.47;;;7.20;99.90;;;;;;5010481;28;20065;-77
2022/02/01 12:05:34;;;;;;;12.85;5.03;;;7.20;99.90;;;;;;5014068;28;20092;-78
2022/02/01 12:08:08;;;;;;;13.15;5.72;;;7.20;99.90;;;;;;5013391;28;20030;-77
2022/02/01 12:10:45;;;;;;;9.45;4.88;;;7.20;99.90;;;;;;5013457;28;20389;-78
2022/02/01 12:13:12;;;;;;;14.10;5.82;;;7.20;99.90;;;;;;4994638;28;20482;-78
2022/02/01 12:15:40;;;;;;;17.02;6.50;;;7.30;99.90;;;;;;4997658;28;20062;-78
2022/02/01 12:18:30;;;;;;;12.25;7.28;;;7.30;99.90;;;;;;5033804;28;20481;-78
2022/02/01 12:21:06;;;;;;;16.45;8.30;;;7.30;99.90;;;;;;4996341;28;20080;-78
2022/02/01 12:23:33;;;;;;;17.27;9.07;;;7.30;99.90;;;;;;5012375;28;20481;-79
2022/02/01 12:25:59;;;;;;;16.83;9.25;;;7.40;99.90;;;;;;5013910;28;20029;-80
2022/02/01 12:28:31;;;;;;;26.70;12.45;;;7.40;99.90;;;;;;5013893;28;20723;-79
2022/02/01 12:31:13;;;;;;;27.67;11.73;;;7.40;99.90;;;;;;5021119;28;20112;-77
2022/02/01 12:33:41;;;;;;;26.88;11.48;;;7.50;99.90;;;;;;5013725;28;20025;-80
2022/02/01 12:36:08;;;;;;;24.63;11.65;;;7.50;99.90;;;;;;5006293;28;20022;-79
2022/02/01 12:38:33;;;;;;;26.88;12.45;;;7.50;99.90;;;;;;4984823;28;20040;-78
2022/02/01 12:41:12;;;;;;;34.30;16.00;;;7.50;99.90;;;;;;5010173;28;20117;-79
2022/02/01 12:43:55;;;;;;;20.58;12.68;;;7.60;99.90;;;;;;5008350;28;20033;-79
2022/02/01 12:46:44;;;;;;;28.08;12.45;;;7.60;99.90;;;;;;5026042;28;20049;-78
2022/02/01 12:49:10;;;;;;;35.03;13.52;;;7.60;99.90;;;;;;5013243;28;20113;-79
2022/02/01 12:51:41;;;;;;;37.22;16.05;;;7.60;99.90;;;;;;4996615;28;20110;-79
2022/02/01 12:54:06;;;;;;;38.35;14.90;;;7.60;99.90;;;;;;4999307;28;20026;-79
2022/02/01 12:56:32;;;;;;;27.50;12.15;;;7.60;99.90;;;;;;5002581;28;20177;-79
2022/02/01 12:59:00;;;;;;;28.50;12.93;;;7.60;99.90;;;;;;5001048;28;20120;-79
2022/02/01 13:01:31;;;;;;;24.65;11.93;;;7.70;99.90;;;;;;4999708;28;20017;-79
2022/02/01 13:03:56;;;;;;;31.42;13.77;;;7.70;99.90;;;;;;5010821;28;20429;-79
2022/02/01 13:06:23;;;;;;;39.17;14.45;;;7.70;99.90;;;;;;5008235;28;20030;-79
2022/02/01 13:12:58;;;;;;;38.10;13.05;;;7.80;99.90;;;;;;4988146;28;20415;-79
2022/02/01 13:15:25;;;;;;;34.20;12.18;;;7.90;99.90;;;;;;4991545;28;20496;-79
2022/02/01 13:18:12;;;;;;;25.33;10.48;;;7.90;99.90;;;;;;4976625;28;20034;-78
2022/02/01 13:20:42;;;;;;;28.33;11.27;;;8.00;99.90;;;;;;5005165;28;20405;-79
2022/02/01 13:23:10;;;;;;;27.40;10.38;;;8.10;99.90;;;;;;4992872;28;20021;-79
2022/02/01 13:25:38;;;;;;;19.90;8.63;;;8.10;99.90;;;;;;4997247;28;20048;-80
2022/02/01 13:28:08;;;;;;;18.75;7.85;;;8.20;99.90;;;;;;4997514;28;20041;-79
2022/02/01 13:30:36;;;;;;;17.27;6.25;;;8.20;99.90;;;;;;4990093;28;21559;-79
2022/02/01 13:33:13;;;;;;;14.32;6.70;;;8.30;99.90;;;;;;5006383;28;20058;-79
2022/02/01 13:35:52;;;;;;;13.10;4.97;;;8.40;99.90;;;;;;5004558;28;20025;-79
2022/02/01 13:38:19;;;;;;;13.23;3.85;;;8.50;99.90;;;;;;4986893;28;20037;-79
2022/02/01 13:40:45;;;;;;;11.25;3.85;;;8.50;99.90;;;;;;4992333;28;20031;-79
2022/02/01 13:43:19;;;;;;;15.27;3.97;;;8.60;99.90;;;;;;5010342;28;20049;-80
2022/02/01 13:45:45;;;;;;;20.13;3.55;;;8.60;99.90;;;;;;4998802;28;20116;-79
2022/02/01 13:48:22;;;;;;;13.50;3.15;;;8.60;99.90;;;;;;4994140;28;20041;-79
2022/02/01 13:50:48;;;;;;;13.45;2.60;;;8.70;99.90;;;;;;4989225;28;20023;-79
2022/02/01 13:53:15;;;;;;;10.18;2.33;;;8.70;99.90;;;;;;4978060;28;20399;-79
2022/02/01 13:55:41;;;;;;;9.52;2.35;;;8.70;99.90;;;;;;4989127;28;20035;-79
2022/02/01 13:58:17;;;;;;;8.52;2.22;;;8.70;99.90;;;;;;4993619;28;20032;-79
2022/02/01 14:00:49;;;;;;;9.68;2.25;;;8.80;99.90;;;;;;4987014;28;20042;-78
2022/02/01 14:11:44;;;;;;;10.05;2.80;;;8.60;99.90;;;;;;4994358;28;20113;-78
2022/02/01 14:14:41;;;;;;;8.25;2.08;;;8.60;99.90;;;;;;4989350;28;20062;-79
2022/02/01 14:23:19;;;;;;;10.13;1.67;;;8.70;99.90;;;;;;4985578;28;20096;-78
2022/02/01 14:25:46;;;;;;;7.95;1.67;;;8.60;99.90;;;;;;4990710;28;20053;-77
2022/02/01 14:33:54;;;;;;;12.98;1.63;;;8.70;99.90;;;;;;4997806;28;20151;-78
2022/02/01 14:36:21;;;;;;;8.55;1.30;;;8.60;99.90;;;;;;4997149;28;20031;-77
2022/02/01 14:39:03;;;;;;;11.45;1.73;;;8.70;99.90;;;;;;4993861;28;20509;-78
2022/02/01 14:44:31;;;;;;;7.03;1.48;;;8.70;99.90;;;;;;4989582;28;20118;-79
2022/02/01 14:46:56;;;;;;;9.40;1.20;;;8.80;99.90;;;;;;4993679;28;20470;-76